CZ-0048 weather

Borek
Central Bohemian Region, Czechia

Public forecast

Using degrees Celsius for public forecast. Weather courtesy of forecast.io.

METAR (pilot weather report)

Closest report is Kbely Air Base, 6.9 nm (12.8 km) SW. Retrieved 2019/01/17 17:00 UTC (46 minutes ago):

LKKB 171700Z 22013KT 9999 BKN029 BKN038 07/00 Q1003 NOSIG

TAF (pilot weather forecast)

Closest forecast is Kbely Air Base, 6.9 nm (12.8 km) SW. Retrieved 2019/01/17 12:00 UTC (6 hours ago):

TAF LKKB 171100Z 1712/1812 23015KT CAVOK TEMPO 1712/1722 24018G28KT BKN027 BECMG 1802/1804 29014G26KT TEMPO 1806/1812 BKN024